createdAt,value
2023-05-02T00:00:10.354Z,41.65
2023-05-02T00:01:10.463Z,36.83
2023-05-02T00:02:10.488Z,43.91
2023-05-02T00:03:10.664Z,43.59
2023-05-02T00:04:10.781Z,42.18
2023-05-02T00:05:10.656Z,40.46
2023-05-02T00:06:10.824Z,39.66
2023-05-02T00:07:10.760Z,43.85
2023-05-02T00:08:10.814Z,37.23
2023-05-02T00:09:10.894Z,38.77
2023-05-02T00:10:10.890Z,36.81
2023-05-02T00:11:10.943Z,41.30
2023-05-02T00:12:11.008Z,44.74
2023-05-02T00:13:11.033Z,43.03
2023-05-02T00:14:11.327Z,41.65
2023-05-02T00:15:11.139Z,39.41
2023-05-02T00:16:11.168Z,39.72
2023-05-02T00:17:11.221Z,43.24
2023-05-02T00:18:11.308Z,43.73
2023-05-02T00:19:11.340Z,43.32
2023-05-02T00:20:11.337Z,40.86
2023-05-02T00:21:11.430Z,41.08
2023-05-02T00:22:11.423Z,37.20
2023-05-02T00:23:11.466Z,38.85
2023-05-02T00:24:11.499Z,41.95
2023-05-02T00:25:11.502Z,42.35
2023-05-02T00:26:11.571Z,40.25
2023-05-02T00:27:11.623Z,42.93
2023-05-02T00:28:11.646Z,43.91
2023-05-02T00:29:11.733Z,35.74
2023-05-02T00:30:11.764Z,42.65
2023-05-02T00:31:11.917Z,43.27
2023-05-02T00:32:11.861Z,43.80
2023-05-02T00:33:11.968Z,45.65
2023-05-02T00:34:11.916Z,44.47
2023-05-02T00:35:11.979Z,44.16
2023-05-02T00:36:12.017Z,43.37
2023-05-02T00:37:12.051Z,44.52
2023-05-02T00:38:12.076Z,46.02
2023-05-02T00:39:12.119Z,42.54
2023-05-02T00:40:12.196Z,41.50
2023-05-02T00:41:12.244Z,44.28
2023-05-02T00:42:12.340Z,42.41
2023-05-02T00:43:12.440Z,43.10
2023-05-02T00:44:12.411Z,42.53
2023-05-02T00:45:12.432Z,41.80
2023-05-02T00:46:12.661Z,41.73
2023-05-02T00:47:12.545Z,44.95
2023-05-02T00:48:12.683Z,44.23
2023-05-02T00:49:12.642Z,41.00
2023-05-02T00:50:12.683Z,44.80
2023-05-02T00:51:12.713Z,44.21
2023-05-02T00:52:12.745Z,43.30
2023-05-02T00:53:12.818Z,46.85
2023-05-02T00:54:12.846Z,40.80
2023-05-02T00:55:12.905Z,42.08
2023-05-02T00:56:12.942Z,44.05
2023-05-02T00:57:13.028Z,44.39
2023-05-02T00:58:13.027Z,45.23
2023-05-02T00:59:13.121Z,45.81
2023-05-02T01:00:13.201Z,44.51
2023-05-02T01:01:13.213Z,42.82
2023-05-02T01:02:13.382Z,43.64
2023-05-02T01:03:13.385Z,46.07
2023-05-02T01:04:13.540Z,45.48
2023-05-02T01:05:13.428Z,43.77
2023-05-02T01:06:13.467Z,43.45
2023-05-02T01:07:13.494Z,44.71
2023-05-02T01:08:13.508Z,45.63
2023-05-02T01:09:13.525Z,46.09
2023-05-02T01:10:13.537Z,45.71
2023-05-02T01:11:13.549Z,43.87
2023-05-02T01:12:13.638Z,43.56
2023-05-02T01:13:13.643Z,45.29
2023-05-02T01:14:13.650Z,39.78
2023-05-02T01:15:13.708Z,44.55
2023-05-02T01:16:13.808Z,43.41
2023-05-02T01:17:13.762Z,44.60
2023-05-02T01:18:13.846Z,42.08
2023-05-02T01:19:13.841Z,44.17
2023-05-02T01:20:13.828Z,44.74
2023-05-02T01:21:13.908Z,43.46
2023-05-02T01:22:13.902Z,43.63
2023-05-02T01:23:13.909Z,43.04
2023-05-02T01:24:13.953Z,43.99
2023-05-02T01:25:13.996Z,44.24
2023-05-02T01:26:13.962Z,44.73
2023-05-02T01:27:13.950Z,44.66
2023-05-02T01:28:13.978Z,43.91
2023-05-02T01:29:14.004Z,42.99
2023-05-02T01:30:13.992Z,42.99
2023-05-02T01:31:14.075Z,44.87
2023-05-02T01:32:14.073Z,44.30
2023-05-02T01:33:14.090Z,44.36
2023-05-02T01:34:14.141Z,41.34
2023-05-02T01:35:14.174Z,41.43
2023-05-02T01:36:14.149Z,39.29
2023-05-02T01:37:14.189Z,43.45
2023-05-02T01:38:14.219Z,44.19
2023-05-02T01:39:14.240Z,41.16
2023-05-02T01:40:14.239Z,44.23
2023-05-02T01:41:14.354Z,43.45
2023-05-02T01:42:14.302Z,45.88
2023-05-02T01:43:14.305Z,42.92
2023-05-02T01:44:14.313Z,44.55
2023-05-02T01:45:14.302Z,43.75
2023-05-02T01:46:14.395Z,45.16
2023-05-02T01:47:14.348Z,45.24
2023-05-02T01:48:14.287Z,43.90
2023-05-02T01:49:14.302Z,44.57
2023-05-02T01:50:14.312Z,45.53
2023-05-02T01:51:14.316Z,44.85
2023-05-02T01:52:14.249Z,45.49
2023-05-02T01:53:14.261Z,46.23
2023-05-02T01:54:14.281Z,42.85
2023-05-02T01:55:14.337Z,41.71
2023-05-02T01:56:14.290Z,45.48
2023-05-02T01:57:14.354Z,44.64
2023-05-02T01:58:14.284Z,44.05
2023-05-02T01:59:14.297Z,43.68
2023-05-02T02:00:14.326Z,45.39
2023-05-02T02:01:14.352Z,40.93
2023-05-02T02:02:14.291Z,43.29
2023-05-02T02:03:14.387Z,45.20
2023-05-02T02:04:14.333Z,43.51
2023-05-02T02:05:14.301Z,43.98
2023-05-02T02:06:14.370Z,41.85
2023-05-02T02:07:14.319Z,44.83
2023-05-02T02:08:14.319Z,44.86
2023-05-02T02:09:14.364Z,44.49
2023-05-02T02:10:14.348Z,45.21
2023-05-02T02:11:14.312Z,44.95
2023-05-02T02:12:14.289Z,42.32
2023-05-02T02:13:14.307Z,45.04
2023-05-02T02:14:14.309Z,46.81
2023-05-02T02:15:14.306Z,44.18
2023-05-02T02:16:14.344Z,43.76
2023-05-02T02:17:14.322Z,42.70
2023-05-02T02:18:14.480Z,43.21
2023-05-02T02:19:14.302Z,42.69
2023-05-02T02:20:14.305Z,44.49
2023-05-02T02:21:14.312Z,45.89
2023-05-02T02:22:14.327Z,43.00
2023-05-02T02:23:14.330Z,43.91
2023-05-02T02:24:14.269Z,45.07
2023-05-02T02:25:14.297Z,42.20
2023-05-02T02:26:14.290Z,43.19
2023-05-02T02:27:14.296Z,43.46
2023-05-02T02:28:14.290Z,44.99
2023-05-02T02:29:14.305Z,42.82
2023-05-02T02:30:14.324Z,44.58
2023-05-02T02:31:14.391Z,42.30
2023-05-02T02:32:14.323Z,46.12
2023-05-02T02:33:14.354Z,42.73
2023-05-02T02:34:14.421Z,44.35
2023-05-02T02:35:14.307Z,42.84
2023-05-02T02:36:14.322Z,43.95
2023-05-02T02:37:14.361Z,44.66
2023-05-02T02:38:14.337Z,44.06
2023-05-02T02:39:14.350Z,45.77
2023-05-02T02:40:14.349Z,44.76
2023-05-02T02:41:14.298Z,43.15
2023-05-02T02:42:14.294Z,41.80
2023-05-02T02:43:14.359Z,44.74
2023-05-02T02:44:14.368Z,45.57
2023-05-02T02:45:14.375Z,43.13
2023-05-02T02:46:14.346Z,42.24
2023-05-02T02:47:14.331Z,42.49
2023-05-02T02:48:14.385Z,44.61
2023-05-02T02:49:14.380Z,43.52
2023-05-02T02:50:14.339Z,43.75
2023-05-02T02:51:14.311Z,45.47
2023-05-02T02:52:14.363Z,44.48
2023-05-02T02:53:14.379Z,45.66
2023-05-02T02:54:25.886Z,45.56
2023-05-02T02:55:15.366Z,45.69
2023-05-02T02:56:14.489Z,46.15
2023-05-02T02:57:14.361Z,46.08
2023-05-02T02:58:14.301Z,46.63
2023-05-02T02:59:14.298Z,46.60
2023-05-02T03:00:14.301Z,45.90
2023-05-02T03:01:14.314Z,46.49
2023-05-02T03:02:14.287Z,45.20
2023-05-02T03:03:14.398Z,43.84
2023-05-02T03:04:14.414Z,46.09
2023-05-02T03:05:14.240Z,45.68
2023-05-02T03:06:14.307Z,44.98
2023-05-02T03:07:14.284Z,45.17
2023-05-02T03:08:14.219Z,44.21
2023-05-02T03:09:14.222Z,45.56
2023-05-02T03:10:14.228Z,45.38
2023-05-02T03:11:14.233Z,44.92
2023-05-02T03:12:14.203Z,45.33
2023-05-02T03:13:14.191Z,43.63
2023-05-02T03:14:14.210Z,45.05
2023-05-02T03:15:14.156Z,43.89
2023-05-02T03:16:14.235Z,46.14
2023-05-02T03:17:14.151Z,46.27
2023-05-02T03:18:14.209Z,44.47
2023-05-02T03:19:14.121Z,45.08
2023-05-02T03:20:14.142Z,46.15
2023-05-02T03:21:14.143Z,47.41
2023-05-02T03:22:14.111Z,45.54
2023-05-02T03:23:14.114Z,43.91
2023-05-02T03:24:14.164Z,45.21
2023-05-02T03:25:14.133Z,44.04
2023-05-02T03:26:14.095Z,45.94
2023-05-02T03:27:14.082Z,44.49
2023-05-02T03:28:14.087Z,45.66
2023-05-02T03:29:14.109Z,46.73
2023-05-02T03:30:14.101Z,47.50
2023-05-02T03:31:14.136Z,46.56
2023-05-02T03:32:14.166Z,43.93
2023-05-02T03:33:14.115Z,44.94
2023-05-02T03:34:14.055Z,45.19
2023-05-02T03:35:14.052Z,44.16
2023-05-02T03:36:14.034Z,44.64
2023-05-02T03:37:14.054Z,46.21
2023-05-02T03:38:14.069Z,46.37
2023-05-02T03:39:14.058Z,44.92
2023-05-02T03:40:14.078Z,45.67
2023-05-02T03:41:14.133Z,45.40
2023-05-02T03:42:14.092Z,44.41
2023-05-02T03:43:14.155Z,44.20
2023-05-02T03:44:14.162Z,45.79
2023-05-02T03:45:14.123Z,48.68
2023-05-02T03:46:14.224Z,45.45
2023-05-02T03:47:14.262Z,46.38
2023-05-02T03:48:14.256Z,46.84
2023-05-02T03:49:14.205Z,45.79
2023-05-02T03:50:14.268Z,47.64
2023-05-02T03:51:14.249Z,45.72
2023-05-02T03:52:14.265Z,43.76
2023-05-02T03:53:14.257Z,45.59
2023-05-02T03:54:14.257Z,45.79
2023-05-02T03:55:14.282Z,44.06
2023-05-02T03:56:14.284Z,47.22
2023-05-02T03:57:14.280Z,45.39
2023-05-02T03:58:14.292Z,46.54
2023-05-02T03:59:14.312Z,44.63
2023-05-02T04:00:14.325Z,46.47
2023-05-02T04:01:14.310Z,46.90
2023-05-02T04:02:14.447Z,45.70
2023-05-02T04:03:14.454Z,44.98
2023-05-02T04:04:14.427Z,45.39
2023-05-02T04:05:14.411Z,40.79
2023-05-02T04:06:14.476Z,34.55
2023-05-02T04:07:14.417Z,31.38
2023-05-02T04:08:14.429Z,27.99
2023-05-02T04:09:14.478Z,26.03
2023-05-02T04:10:14.438Z,27.32
2023-05-02T04:11:14.453Z,25.00
2023-05-02T04:12:14.495Z,27.50
2023-05-02T04:13:14.503Z,25.00
2023-05-02T04:14:14.511Z,27.55
2023-05-02T04:15:15.415Z,25.00
2023-05-02T04:16:14.568Z,25.74
2023-05-02T04:17:14.641Z,25.58
2023-05-02T04:18:14.652Z,27.71
2023-05-02T04:19:14.657Z,25.00
2023-05-02T04:20:14.653Z,26.12
2023-05-02T04:21:14.789Z,28.11
2023-05-02T04:22:14.696Z,28.74
2023-05-02T04:23:14.735Z,25.00
2023-05-02T04:24:14.794Z,25.82
2023-05-02T04:25:14.786Z,25.10
2023-05-02T04:26:14.850Z,25.00
2023-05-02T04:27:15.548Z,25.20
2023-05-02T04:28:14.875Z,28.13
2023-05-02T04:29:14.922Z,25.00
2023-05-02T04:30:14.919Z,24.75
2023-05-02T04:31:15.026Z,26.32
2023-05-02T04:32:14.993Z,26.44
2023-05-02T04:33:15.147Z,27.20
2023-05-02T04:34:15.059Z,27.11
2023-05-02T04:35:15.088Z,27.56
2023-05-02T04:36:15.132Z,26.82
2023-05-02T04:37:15.889Z,27.51
2023-05-02T04:38:15.204Z,30.92
2023-05-02T04:39:15.187Z,30.43
2023-05-02T04:40:15.202Z,28.41
2023-05-02T04:41:15.281Z,30.30
2023-05-02T04:42:15.268Z,30.83
2023-05-02T04:43:15.327Z,26.72
2023-05-02T04:44:15.353Z,30.20
2023-05-02T04:45:15.394Z,30.81
2023-05-02T04:46:15.453Z,32.53
2023-05-02T04:47:15.406Z,31.63
2023-05-02T04:48:15.434Z,27.46
2023-05-02T04:49:15.455Z,31.86
2023-05-02T04:50:15.476Z,31.96
2023-05-02T04:51:16.971Z,29.59
2023-05-02T04:52:15.501Z,31.04
2023-05-02T04:53:15.498Z,32.19
2023-05-02T04:54:15.518Z,26.03
2023-05-02T04:55:15.576Z,21.77
2023-05-02T04:56:15.571Z,25.29
2023-05-02T04:57:15.635Z,26.25
2023-05-02T04:58:15.679Z,27.95
2023-05-02T04:59:15.765Z,25.00
2023-05-02T05:00:15.765Z,30.68
2023-05-02T05:01:15.829Z,25.00
2023-05-02T05:02:16.001Z,25.67
2023-05-02T05:03:16.022Z,27.92
2023-05-02T05:04:16.159Z,25.00
2023-05-02T05:05:16.004Z,25.15
2023-05-02T05:06:16.113Z,25.00
2023-05-02T05:07:15.913Z,27.55
2023-05-02T05:08:19.869Z,26.22
2023-05-02T05:09:15.930Z,25.00
2023-05-02T05:10:15.919Z,38.83
2023-05-02T05:11:15.910Z,43.56
2023-05-02T05:12:15.953Z,45.94
2023-05-02T05:13:15.948Z,56.78
2023-05-02T05:14:15.911Z,58.67
2023-05-02T05:15:15.911Z,60.29
2023-05-02T05:16:15.935Z,59.60
2023-05-02T05:17:15.864Z,50.41
2023-05-02T05:18:16.015Z,52.02
2023-05-02T05:19:15.864Z,47.88
2023-05-02T05:20:15.839Z,30.89
2023-05-02T05:21:15.847Z,25.75
2023-05-02T05:22:15.857Z,25.57
2023-05-02T05:23:15.860Z,26.43
2023-05-02T05:24:15.869Z,25.51
2023-05-02T05:25:15.817Z,25.00
2023-05-02T05:26:15.839Z,32.08
2023-05-02T05:27:15.801Z,33.87
2023-05-02T05:28:15.810Z,29.78
2023-05-02T05:29:15.806Z,25.33
2023-05-02T05:30:15.804Z,29.06
2023-05-02T05:31:16.848Z,32.42
2023-05-02T05:32:15.836Z,47.50
2023-05-02T05:33:15.870Z,41.92
2023-05-02T05:34:15.863Z,56.68
2023-05-02T05:35:15.780Z,62.14
2023-05-02T05:36:15.747Z,49.88
2023-05-02T05:37:15.754Z,42.10
2023-05-02T05:38:15.767Z,33.68
2023-05-02T05:39:16.531Z,28.78
2023-05-02T05:40:15.738Z,25.00
2023-05-02T05:41:15.721Z,25.00
2023-05-02T05:42:15.724Z,34.47
2023-05-02T05:43:15.737Z,37.85
2023-05-02T05:44:15.701Z,47.39
2023-05-02T05:45:15.705Z,50.06
2023-05-02T05:46:15.705Z,65.46
2023-05-02T05:47:15.762Z,79.51
2023-05-02T05:48:15.678Z,91.77
2023-05-02T05:49:15.769Z,107.92
2023-05-02T05:50:15.772Z,112.55
2023-05-02T05:51:15.746Z,119.35
2023-05-02T05:52:15.752Z,130.64
2023-05-02T05:53:15.795Z,141.06
2023-05-02T05:54:15.828Z,144.51
2023-05-02T05:55:15.771Z,152.13
2023-05-02T05:56:15.791Z,153.32
2023-05-02T05:57:15.869Z,158.70
2023-05-02T05:58:15.924Z,163.06
2023-05-02T05:59:15.957Z,169.24
2023-05-02T06:00:15.952Z,172.36
2023-05-02T06:01:16.031Z,174.14
2023-05-02T06:02:16.083Z,177.33
2023-05-02T06:03:16.292Z,180.10
2023-05-02T06:04:16.207Z,184.09
2023-05-02T06:05:16.185Z,191.78
2023-05-02T06:06:16.288Z,197.45
2023-05-02T06:07:16.275Z,200.96
2023-05-02T06:08:16.317Z,207.99
2023-05-02T06:09:16.521Z,211.18
2023-05-02T06:10:16.495Z,209.08
2023-05-02T06:11:16.521Z,214.72
2023-05-02T06:12:16.428Z,224.13
2023-05-02T06:13:18.258Z,236.51
2023-05-02T06:14:16.463Z,230.42
2023-05-02T06:15:16.469Z,222.12
2023-05-02T06:16:16.503Z,210.08
2023-05-02T06:17:16.486Z,216.16
2023-05-02T06:18:17.002Z,221.41
2023-05-02T06:19:16.653Z,217.96
2023-05-02T06:20:18.139Z,221.00
2023-05-02T06:21:16.606Z,223.80
2023-05-02T06:22:16.629Z,224.27
2023-05-02T06:23:16.632Z,229.33
2023-05-02T06:24:16.635Z,230.73
2023-05-02T06:25:16.706Z,238.25
2023-05-02T06:26:16.728Z,237.90
2023-05-02T06:27:16.708Z,240.07
2023-05-02T06:28:16.724Z,236.83
2023-05-02T06:29:16.716Z,239.28
2023-05-02T06:30:16.727Z,240.10
2023-05-02T06:31:16.812Z,222.62
2023-05-02T06:32:16.786Z,201.86
2023-05-02T06:33:16.812Z,182.37
2023-05-02T06:34:16.859Z,164.16
2023-05-02T06:35:16.923Z,151.47
2023-05-02T06:36:16.982Z,157.71
2023-05-02T06:37:17.502Z,130.53
2023-05-02T06:38:17.454Z,144.89
2023-05-02T06:39:17.526Z,143.77
2023-05-02T06:40:17.570Z,138.93
2023-05-02T06:41:18.148Z,131.14
2023-05-02T06:42:17.469Z,124.69
2023-05-02T06:43:17.481Z,124.30
2023-05-02T06:44:17.084Z,128.59
2023-05-02T06:45:17.092Z,127.82
2023-05-02T06:46:17.130Z,132.79
2023-05-02T06:47:17.612Z,140.25
2023-05-02T06:48:17.119Z,138.83
2023-05-02T06:49:17.090Z,149.60
2023-05-02T06:50:17.119Z,148.60
2023-05-02T06:51:17.116Z,151.70
2023-05-02T06:52:17.143Z,157.94
2023-05-02T06:53:17.198Z,163.54
2023-05-02T06:54:17.208Z,165.58
2023-05-02T06:55:17.351Z,171.62
2023-05-02T06:56:17.319Z,172.43
2023-05-02T06:57:17.390Z,173.99
2023-05-02T06:58:17.439Z,174.69
2023-05-02T06:59:17.476Z,186.88
2023-05-02T07:00:17.577Z,175.58
2023-05-02T07:01:17.605Z,173.84
2023-05-02T07:02:17.616Z,167.65
2023-05-02T07:03:17.685Z,174.12
2023-05-02T07:04:17.759Z,184.04
2023-05-02T07:05:17.679Z,181.55
2023-05-02T07:06:17.774Z,187.25
2023-05-02T07:07:17.752Z,187.17
2023-05-02T07:08:18.027Z,185.42
2023-05-02T07:09:17.874Z,185.81
2023-05-02T07:10:17.959Z,186.35
2023-05-02T07:11:17.826Z,188.58
2023-05-02T07:12:17.964Z,191.72
2023-05-02T07:13:17.852Z,191.94
2023-05-02T07:14:17.950Z,191.13
2023-05-02T07:15:17.892Z,197.40
2023-05-02T07:16:17.856Z,204.98
2023-05-02T07:17:17.973Z,206.14
2023-05-02T07:18:17.993Z,210.13
2023-05-02T07:19:17.988Z,214.31
2023-05-02T07:20:17.905Z,215.95
2023-05-02T07:21:17.889Z,217.30
2023-05-02T07:22:18.012Z,218.05
2023-05-02T07:23:18.026Z,227.77
2023-05-02T07:24:18.009Z,231.47
2023-05-02T07:25:17.877Z,242.32
2023-05-02T07:26:17.983Z,235.74
2023-05-02T07:27:17.973Z,234.85
2023-05-02T07:28:17.982Z,242.17
2023-05-02T07:29:18.112Z,243.91
2023-05-02T07:30:18.507Z,250.00
2023-05-02T07:31:18.901Z,245.59
2023-05-02T07:32:18.076Z,247.38
2023-05-02T07:33:18.095Z,250.00
2023-05-02T07:34:18.032Z,243.07
2023-05-02T07:35:21.329Z,238.56
2023-05-02T07:36:18.132Z,238.59
2023-05-02T07:37:18.149Z,243.39
2023-05-02T07:38:18.043Z,233.53
2023-05-02T07:39:18.071Z,236.28
2023-05-02T07:40:18.066Z,221.26
2023-05-02T07:41:18.622Z,221.12
2023-05-02T07:42:18.082Z,219.09
2023-05-02T07:43:18.055Z,219.24
2023-05-02T07:44:18.075Z,213.59
2023-05-02T07:45:18.118Z,204.45
2023-05-02T07:46:18.029Z,200.90
2023-05-02T07:47:18.526Z,191.05
2023-05-02T07:48:18.532Z,176.84
2023-05-02T07:49:18.025Z,180.37
2023-05-02T07:50:18.006Z,173.65
2023-05-02T07:51:18.010Z,176.28
2023-05-02T07:52:20.710Z,175.98
2023-05-02T07:53:18.494Z,176.15
2023-05-02T07:54:17.969Z,176.69
2023-05-02T07:55:17.970Z,175.99
2023-05-02T07:56:17.940Z,169.22
2023-05-02T07:57:18.196Z,173.81
2023-05-02T07:58:23.097Z,172.11
2023-05-02T07:59:17.990Z,172.40
2023-05-02T08:00:18.014Z,173.00
2023-05-02T08:01:17.923Z,172.28
2023-05-02T08:02:18.009Z,176.05
2023-05-02T08:03:18.001Z,172.64
2023-05-02T08:04:18.187Z,171.43
2023-05-02T08:05:18.091Z,167.22
2023-05-02T08:06:17.983Z,164.26
2023-05-02T08:07:19.467Z,162.08
2023-05-02T08:08:17.859Z,158.49
2023-05-02T08:09:17.842Z,151.19
2023-05-02T08:10:17.877Z,155.07
2023-05-02T08:11:17.947Z,156.30
2023-05-02T08:12:17.953Z,158.43
2023-05-02T08:13:17.939Z,157.70
2023-05-02T08:14:17.914Z,153.92
2023-05-02T08:15:17.928Z,149.24
2023-05-02T08:16:17.955Z,146.34
2023-05-02T08:17:17.934Z,142.45
2023-05-02T08:18:18.538Z,140.83
2023-05-02T08:19:17.996Z,138.14
2023-05-02T08:20:17.929Z,143.41
2023-05-02T08:21:17.940Z,142.60
2023-05-02T08:22:18.156Z,136.09
2023-05-02T08:23:18.013Z,143.11
2023-05-02T08:24:18.016Z,144.49
2023-05-02T08:25:18.006Z,147.77
2023-05-02T08:26:18.034Z,143.98
2023-05-02T08:27:19.099Z,151.74
2023-05-02T08:28:18.110Z,144.81
2023-05-02T08:29:18.539Z,148.80
2023-05-02T08:30:18.545Z,127.33
2023-05-02T08:31:18.201Z,100.06
2023-05-02T08:32:18.239Z,93.59
2023-05-02T08:33:18.113Z,91.60
2023-05-02T08:34:18.239Z,90.09
2023-05-02T08:35:18.252Z,87.69
2023-05-02T08:36:18.246Z,71.23
2023-05-02T08:37:18.380Z,64.53
2023-05-02T08:38:18.356Z,53.55
2023-05-02T08:39:18.365Z,54.96
2023-05-02T08:40:27.114Z,49.46
2023-05-02T08:41:20.253Z,49.70
2023-05-02T08:42:18.392Z,51.96
2023-05-02T08:43:18.506Z,60.97
2023-05-02T08:44:18.425Z,75.01
2023-05-02T08:45:19.130Z,87.66
2023-05-02T08:46:18.425Z,90.89
2023-05-02T08:47:18.441Z,98.07
2023-05-02T08:48:18.457Z,99.57
2023-05-02T08:49:18.354Z,99.95
2023-05-02T08:50:18.343Z,110.77
2023-05-02T08:52:18.354Z,112.18
2023-05-02T08:53:18.592Z,115.64
2023-05-02T08:54:18.377Z,107.76
2023-05-02T08:55:18.448Z,117.59
2023-05-02T08:56:18.449Z,118.18
2023-05-02T08:57:18.459Z,118.61
2023-05-02T08:58:18.455Z,117.97
2023-05-02T08:59:18.474Z,111.90
2023-05-02T09:00:18.499Z,105.52
2023-05-02T09:01:18.548Z,101.91
2023-05-02T09:02:18.547Z,90.71
2023-05-02T09:03:19.820Z,104.15
2023-05-02T09:04:18.570Z,106.77
2023-05-02T09:05:18.572Z,109.64
2023-05-02T09:06:18.618Z,111.78
2023-05-02T09:07:18.475Z,98.39
2023-05-02T09:08:19.096Z,101.74
2023-05-02T09:09:19.246Z,107.41
2023-05-02T09:10:18.651Z,104.53
2023-05-02T09:11:18.500Z,102.26
2023-05-02T09:12:18.502Z,121.27
2023-05-02T09:13:18.454Z,117.99
2023-05-02T09:14:18.468Z,112.45
2023-05-02T09:15:20.910Z,125.65
2023-05-02T09:16:18.696Z,142.18
2023-05-02T09:17:19.059Z,155.89
2023-05-02T09:18:18.726Z,159.82
2023-05-02T09:19:18.768Z,166.87
2023-05-02T09:20:18.830Z,176.12
2023-05-02T09:21:20.722Z,175.49
2023-05-02T09:22:18.942Z,165.47
2023-05-02T09:23:19.035Z,177.56
2023-05-02T09:24:19.164Z,180.78
2023-05-02T09:25:19.150Z,190.64
2023-05-02T09:26:19.214Z,185.65
2023-05-02T09:27:19.313Z,192.38
2023-05-02T09:28:19.420Z,198.26
2023-05-02T09:29:19.430Z,189.94
2023-05-02T09:30:19.614Z,197.79
2023-05-02T09:31:37.494Z,187.80
2023-05-02T09:32:20.705Z,187.95
2023-05-02T09:33:19.572Z,184.60
2023-05-02T09:34:19.517Z,179.37
2023-05-02T09:35:19.496Z,185.86
2023-05-02T09:36:19.691Z,179.23
2023-05-02T09:37:19.446Z,179.30
2023-05-02T09:38:19.449Z,165.33
2023-05-02T09:39:19.386Z,171.21
2023-05-02T09:40:19.566Z,157.23
2023-05-02T09:41:19.392Z,161.96
2023-05-02T09:42:19.536Z,151.33
2023-05-02T09:43:19.511Z,143.24
2023-05-02T09:44:19.652Z,143.05
2023-05-02T09:45:19.701Z,130.11
2023-05-02T09:46:20.106Z,125.92
2023-05-02T09:47:19.757Z,122.24
2023-05-02T09:48:20.137Z,120.93
2023-05-02T09:49:19.869Z,117.87
2023-05-02T09:50:19.899Z,119.51
2023-05-02T09:51:20.046Z,116.57
2023-05-02T09:52:20.050Z,95.00
2023-05-02T09:53:20.063Z,90.05
2023-05-02T09:54:20.118Z,88.37
2023-05-02T09:55:20.177Z,84.23
2023-05-02T09:56:20.234Z,78.05
2023-05-02T09:57:20.327Z,83.51
2023-05-02T09:58:20.302Z,80.42
2023-05-02T09:59:20.569Z,64.03
2023-05-02T10:00:20.379Z,52.66
2023-05-02T10:01:20.456Z,54.02
2023-05-02T10:02:20.456Z,55.79
2023-05-02T10:03:20.467Z,60.58
2023-05-02T10:04:20.530Z,51.83
2023-05-02T10:05:20.505Z,42.08
2023-05-02T10:06:20.600Z,42.55
2023-05-02T10:07:20.572Z,38.62
2023-05-02T10:08:20.588Z,52.81
2023-05-02T10:09:21.790Z,35.13
2023-05-02T10:10:20.641Z,42.80
2023-05-02T10:11:20.692Z,44.09
2023-05-02T10:12:20.707Z,50.49
2023-05-02T10:13:20.759Z,67.11
2023-05-02T10:14:20.817Z,61.35
2023-05-02T10:15:20.864Z,75.37
2023-05-02T10:16:21.075Z,74.65
2023-05-02T10:17:20.989Z,74.60
2023-05-02T10:18:21.056Z,77.72
2023-05-02T10:19:21.100Z,75.70
2023-05-02T10:20:21.165Z,80.61
2023-05-02T10:21:21.281Z,81.87
2023-05-02T10:22:21.283Z,86.25
2023-05-02T10:23:21.345Z,89.59
2023-05-02T10:24:21.455Z,99.06
2023-05-02T10:25:21.462Z,101.32
2023-05-02T10:26:21.486Z,112.02
2023-05-02T10:27:22.150Z,111.11
2023-05-02T10:28:22.044Z,103.52
2023-05-02T10:29:21.697Z,90.08
2023-05-02T10:30:21.710Z,81.77
2023-05-02T10:31:21.856Z,81.31
2023-05-02T10:32:21.883Z,56.87
2023-05-02T10:33:21.901Z,60.29
2023-05-02T10:34:21.953Z,50.30
2023-05-02T10:35:22.001Z,32.58
2023-05-02T10:36:22.026Z,25.82
2023-05-02T10:37:22.113Z,26.12
2023-05-02T10:38:23.347Z,29.17
2023-05-02T10:39:22.231Z,25.01
2023-05-02T10:40:22.224Z,27.01
2023-05-02T10:41:22.244Z,27.41
2023-05-02T10:42:22.195Z,22.46
2023-05-02T10:43:22.339Z,25.00
2023-05-02T10:44:22.356Z,30.44
2023-05-02T10:45:22.562Z,32.98
2023-05-02T10:46:22.315Z,25.00
2023-05-02T10:47:22.755Z,19.52
2023-05-02T10:48:22.651Z,25.94
2023-05-02T10:49:22.405Z,30.53
2023-05-02T10:50:22.398Z,30.24
2023-05-02T10:51:22.551Z,25.28
2023-05-02T10:52:22.444Z,26.29
2023-05-02T10:53:22.370Z,33.32
2023-05-02T10:54:22.387Z,30.72
2023-05-02T10:55:22.460Z,25.47
2023-05-02T10:56:22.431Z,29.82
2023-05-02T10:57:22.442Z,27.85
2023-05-02T10:58:22.562Z,27.91
2023-05-02T10:59:22.477Z,32.97
2023-05-02T11:00:22.519Z,41.69
2023-05-02T11:01:22.706Z,35.35
2023-05-02T11:02:22.587Z,37.05
2023-05-02T11:03:22.623Z,38.85
2023-05-02T11:04:22.554Z,39.06
2023-05-02T11:05:22.634Z,31.16
2023-05-02T11:06:22.695Z,36.76
2023-05-02T11:07:22.679Z,36.66
2023-05-02T11:08:23.375Z,36.49
2023-05-02T11:09:22.619Z,35.62
2023-05-02T11:10:22.623Z,34.87
2023-05-02T11:11:22.646Z,34.22
2023-05-02T11:12:22.644Z,34.09
2023-05-02T11:13:23.090Z,31.51
2023-05-02T11:14:22.757Z,38.20
2023-05-02T11:15:22.719Z,38.31
2023-05-02T11:16:22.811Z,31.93
2023-05-02T11:17:22.725Z,33.00
2023-05-02T11:18:22.732Z,32.51
2023-05-02T11:19:22.730Z,40.83
2023-05-02T11:20:22.732Z,40.68
2023-05-02T11:21:23.052Z,43.32
2023-05-02T11:22:22.828Z,43.78
2023-05-02T11:23:23.091Z,42.63
2023-05-02T11:24:22.834Z,35.73
2023-05-02T11:25:23.098Z,33.33
2023-05-02T11:26:22.854Z,26.23
2023-05-02T11:27:23.474Z,30.89
2023-05-02T11:28:22.899Z,20.33
2023-05-02T11:29:22.855Z,37.69
2023-05-02T11:30:22.869Z,35.64
2023-05-02T11:31:22.959Z,34.36
2023-05-02T11:32:23.184Z,39.58
2023-05-02T11:33:22.918Z,37.00
2023-05-02T11:34:22.902Z,46.16
2023-05-02T11:35:22.911Z,56.92
2023-05-02T11:36:22.955Z,45.88
2023-05-02T11:37:22.975Z,53.85
2023-05-02T11:38:22.972Z,49.31
2023-05-02T11:39:22.998Z,48.62
2023-05-02T11:40:23.079Z,48.61
2023-05-02T11:41:23.006Z,45.80
2023-05-02T11:42:23.037Z,43.95
2023-05-02T11:43:23.103Z,45.30
2023-05-02T11:44:23.071Z,44.23
2023-05-02T11:45:23.035Z,50.73
2023-05-02T11:46:23.209Z,49.96
2023-05-02T11:47:23.089Z,56.55
2023-05-02T11:48:23.065Z,53.13
2023-05-02T11:49:23.130Z,56.70
2023-05-02T11:50:23.233Z,54.38
2023-05-02T11:51:23.126Z,51.32
2023-05-02T11:52:23.059Z,49.53
2023-05-02T11:53:23.263Z,56.56
2023-05-02T11:54:23.143Z,60.77
2023-05-02T11:55:23.104Z,55.12
2023-05-02T11:56:23.102Z,60.52
2023-05-02T11:57:23.089Z,56.08
2023-05-02T11:58:23.109Z,55.90
2023-05-02T11:59:23.577Z,58.01
2023-05-02T12:00:23.166Z,53.83
2023-05-02T12:01:23.200Z,57.01
2023-05-02T12:02:23.328Z,56.86
2023-05-02T12:03:23.261Z,52.81
2023-05-02T12:04:23.189Z,59.82
2023-05-02T12:05:23.256Z,55.95
2023-05-02T12:06:23.385Z,56.14
2023-05-02T12:07:23.237Z,58.45
2023-05-02T12:08:23.222Z,61.28
2023-05-02T12:09:23.278Z,67.66
2023-05-02T12:10:23.255Z,67.03
2023-05-02T12:11:23.266Z,77.40
2023-05-02T12:12:23.299Z,83.17
2023-05-02T12:13:23.248Z,88.27
2023-05-02T12:14:23.381Z,99.75
2023-05-02T12:15:23.423Z,99.16
2023-05-02T12:16:23.560Z,89.97
2023-05-02T12:17:23.490Z,87.67
2023-05-02T12:18:23.519Z,83.85
2023-05-02T12:19:23.442Z,85.77
2023-05-02T12:20:23.581Z,88.56
2023-05-02T12:21:23.535Z,92.13
2023-05-02T12:22:23.537Z,101.90
2023-05-02T12:23:23.516Z,103.49
2023-05-02T12:24:23.506Z,104.35
2023-05-02T12:25:23.552Z,109.99
2023-05-02T12:26:23.597Z,113.17
2023-05-02T12:27:23.568Z,114.62
2023-05-02T12:28:23.534Z,117.24
2023-05-02T12:29:23.578Z,123.52
2023-05-02T12:30:23.582Z,122.92
2023-05-02T12:31:23.677Z,123.67
2023-05-02T12:32:24.499Z,126.84
2023-05-02T12:33:23.621Z,126.87
2023-05-02T12:34:23.571Z,131.92
2023-05-02T12:35:23.621Z,135.15
2023-05-02T12:36:23.617Z,134.37
2023-05-02T12:37:23.632Z,137.78
2023-05-02T12:38:23.700Z,137.05
2023-05-02T12:39:23.755Z,141.59
2023-05-02T12:40:23.753Z,144.55
2023-05-02T12:41:23.985Z,143.24
2023-05-02T12:42:23.802Z,146.85
2023-05-02T12:43:23.890Z,148.83
2023-05-02T12:44:23.892Z,147.61
2023-05-02T12:45:23.943Z,151.20